Station: Mackay  

  Atmospheric Gas Attenuation - ITU Rec 676-11   ----------------- dB/100km -----------------
Date Time Temp RH % AH g/m3 Dew Point Wind Direction Speed kph Gust kph Barometer mB Rainfall Since 9am 24GHz 47GHz 76GHz 122GHz 134GHz 241GHz
05/09 16:30 22.8 77 15.65 18.6 11 15 1017.7 0 34.0 35.0 64.1 169.2 181.0 627.9
05/09 16:20 22.8 77 15.65 18.6 13 19 1017.7 0 34.0 35.0 64.1 169.2 181.0 627.9
05/09 16:10 22.9 76 15.53 18.4 13 15 1017.7 0 33.8 34.8 63.5 167.6 179.0 621.0
05/09 16:00 23.2 75 15.59 18.5 11 17 1017.6 0 33.9 34.7 63.5 167.6 179.1 621.6
05/09 15:50 23.1 76 15.71 18.6 13 17 1017.7 0 34.1 35.0 64.1 169.3 181.1 628.5
05/09 15:40 23.4 74 15.56 18.5 11 15 1017.7 0 33.8 34.6 63.2 166.8 178.2 618.5
05/09 15:30 23.2 74 15.38 18.3 13 17 1017.7 0 33.4 34.4 62.5 165.2 176.1 611.0
05/09 15:20 23.5 73 15.44 18.4 11 17 1017.7 0 33.5 34.4 62.6 165.2 176.3 611.7
05/09 15:10 23.1 75 15.5 18.4 13 17 1017.9 0 33.7 34.6 63.2 166.8 178.1 618.0
05/09 15:00 23.2 73 15.18 18.1 11 17 1017.9 0 33.0 34.0 61.7 162.8 173.3 601.1
05/09 14:50 23.4 74 15.56 18.5 11 17 1018.1 0 33.8 34.6 63.2 166.9 178.3 618.7
05/09 14:40 23.8 73 15.7 18.7 11 17 1018.2 0 34.0 34.7 63.5 167.7 179.4 622.5
05/09 14:30 24.1 74 16.19 19.2 11 19 1018.2 0 35.1 35.5 65.4 172.8 185.8 644.8
05/09 14:20 24 72 15.66 18.6 11 17 1018.4 0 33.9 34.6 63.2 166.8 178.4 619.0
05/09 14:10 23.6 73 15.53 18.5 13 17 1018.6 0 33.7 34.5 62.9 166.2 177.4 615.8
05/09 14:00 24.1 73 15.97 19 11 17 1018.6 0 34.6 35.1 64.5 170.3 182.6 633.8
05/09 13:50 23.6 72 15.31 18.3 11 17 1018.9 0 33.2 34.1 62.0 163.7 174.3 604.9
05/09 13:40 24.1 70 15.32 18.3 11 15 1019 0 33.2 34.0 61.6 162.7 173.3 601.5
05/09 13:30 23.7 70 14.97 17.9 11 15 1019 0 32.5 33.5 60.4 159.5 169.3 587.3
05/09 13:20 23.9 71 15.36 18.3 11 15 1019.2 0 33.3 34.1 62.0 163.6 174.4 605.2
05/09 13:10 23.6 72 15.31 18.3 11 15 1019.4 0 33.2 34.2 62.0 163.7 174.4 605.1
05/09 13:00 23.8 73 15.7 18.7 11 15 1019.5 0 34.0 34.8 63.6 167.9 179.5 623.1
05/09 12:50 25.1 70 16.2 19.2 9 15 1019.6 0 35.0 35.1 64.7 170.9 183.7 637.6
05/09 12:40 23.8 71 15.27 18.2 11 15 1019.8 0 33.1 34.0 61.7 162.9 173.4 601.7
05/09 12:30 23.4 72 15.14 18.1 11 17 1019.9 0 32.9 34.0 61.5 162.2 172.5 598.4
05/09 12:20 23.5 71 15.01 17.9 11 17 1020.1 0 32.6 33.7 60.8 160.5 170.4 591.3
05/09 12:10 23.3 71 14.84 17.7 11 15 1020.3 0 32.2 33.5 60.3 159.0 168.5 584.4
05/09 12:00 23.4 71 14.93 17.8 11 15 1020.6 0 32.4 33.6 60.6 159.9 169.6 588.3
05/09 11:50 23.8 68 14.63 17.5 11 17 1020.8 0 31.8 32.9 59.0 155.7 164.5 570.6
05/09 11:40 23.2 69 14.34 17.2 9 13 1021 0 31.2 32.7 58.2 153.6 161.7 560.9
05/09 11:30 23.2 73 15.18 18.1 11 15 1021.2 0 33.0 34.2 61.9 163.3 173.7 602.5
05/09 11:20 24.2 68 14.96 17.9 9 15 1021.4 0 32.4 33.4 60.1 158.7 168.3 584.0
05/09 11:10 23.1 70 14.47 17.3 11 15 1021.5 0 31.5 33.0 58.9 155.3 163.8 568.2
05/09 11:00 23.4 71 14.93 17.8 9 13 1021.6 0 32.4 33.7 60.6 160.0 169.7 588.7
05/09 10:50 23.5 70 14.8 17.7 9 15 1021.8 0 32.1 33.4 60.0 158.3 167.6 581.6
05/09 10:40 23.5 71 15.01 17.9 11 15 1021.8 0 32.6 33.8 60.9 160.8 170.6 592.0
05/09 10:30 23.2 69 14.34 17.2 11 15 1021.9 0 31.2 32.7 58.3 153.7 161.8 561.2
05/09 10:20 23.9 72 15.58 18.5 9 15 1021.9 0 33.8 34.6 63.1 166.6 177.9 617.3
05/09 10:10 23.7 70 14.97 17.9 9 13 1021.8 0 32.5 33.6 60.6 159.9 169.6 588.5
05/09 10:00 23.4 75 15.77 18.7 9 15 1021.9 0 34.2 35.2 64.4 169.9 181.8 631.0
05/09 09:50 23.3 77 16.1 19 7 13 1022 0 34.9 35.8 65.9 174.1 186.9 648.7
05/09 09:40 23.2 76 15.8 18.7 9 13 1022.2 0 34.3 35.3 64.7 170.8 182.8 634.3
05/09 09:30 22.8 75 15.24 18.1 7 13 1022.3 0 33.1 34.5 62.5 165.0 175.6 609.2
05/09 09:20 22.6 76 15.27 18.2 6 11 1022.3 0 33.2 34.6 62.8 165.8 176.5 612.3
05/09 09:10 22.5 80 15.98 18.9 7 13 1022.2 0 34.7 35.9 66.1 174.5 187.2 649.4
05/09 09:00 21.8 82 15.73 18.6 7 11 1022.2 0 34.3 35.8 65.5 173.0 185.2 642.4
05/09 08:50 21.4 85 15.93 18.8 7 11 1022.1 0.2 34.7 36.3 66.8 176.4 189.1 656.2
05/09 08:40 20.3 86 15.12 17.9 9 13 1022 0.2 33.1 35.3 64.0 169.0 179.7 623.0
05/09 08:30 19.9 88 15.12 17.9 7 11 1021.9 0.2 33.1 35.4 64.3 169.8 180.6 626.2
05/09 08:20 19 89 14.5 17.1 9 13 1021.7 0.2 31.9 34.6 62.2 164.2 173.4 601.0
05/09 08:10 18.3 91 14.23 16.8 11 15 1021.7 0.2 31.3 34.4 61.6 162.4 170.9 592.4
05/09 08:00 17.8 93 14.11 16.7 9 13 1021.6 0.2 31.1 34.4 61.4 162.0 170.3 589.9
05/09 07:50 17.3 94 13.85 16.3 11 15 1021.5 0.2 30.6 34.1 60.6 159.9 167.5 580.1
05/09 07:40 16.8 95 13.58 16 9 15 1021.5 0.2 30.1 33.8 59.8 157.6 164.5 569.7
05/09 07:30 16.4 96 13.4 15.8 11 15 1021.4 0.2 29.7 33.6 59.2 156.2 162.7 563.2
05/09 07:20 15.8 96 12.92 15.2 11 15 1021.4 0.2 28.7 33.0 57.5 151.6 156.7 542.5
05/09 07:10 15.6 97 12.9 15.1 13 15 1021.5 0.2 28.7 33.0 57.6 151.7 156.9 542.9
05/09 07:00 15.2 97 12.59 14.7 11 15 1021.4 0.2 28.1 32.6 56.4 148.7 153.0 529.5
05/09 06:50 15 97 12.44 14.5 13 17 1021.3 0.2 27.7 32.4 55.9 147.3 151.2 523.1
05/09 06:40 14.8 97 12.29 14.3 13 17 1021.2 0.2 27.4 32.2 55.4 145.8 149.4 516.6
05/09 06:30 14.7 97 12.21 14.2 11 15 1021.1 0.2 27.3 32.1 55.1 145.1 148.4 513.1
05/09 06:20 14.6 97 12.14 14.1 13 17 1021 0.2 27.1 32.0 54.8 144.4 147.5 510.1
05/09 06:10 14.5 97 12.06 14 13 15 1020.9 0.2 27.0 31.9 54.5 143.6 146.5 506.6
05/09 06:00 14.5 97 12.06 14 13 17 1020.7 0.2 27.0 31.9 54.5 143.6 146.5 506.5
05/09 05:50 14.4 96 11.87 13.8 13 15 1020.7 0.2 26.6 31.6 53.7 141.5 143.9 497.4
05/09 05:40 14.5 96 11.94 13.9 13 19 1020.6 0.2 26.7 31.7 54.0 142.1 144.7 500.3
05/09 05:30 14.7 96 12.09 14.1 13 15 1020.4 0.2 27.0 31.9 54.5 143.5 146.5 506.6
05/09 05:20 14.7 96 12.09 14.1 13 15 1020.4 0.2 27.0 31.9 54.5 143.5 146.5 506.6
05/09 05:10 14.9 97 12.36 14.4 11 15 1020.3 0.2 27.6 32.3 55.6 146.4 150.1 519.2
05/09 05:00 15.1 97 12.51 14.6 11 15 1020.2 0.2 27.9 32.5 56.1 147.8 151.9 525.6
05/09 04:50 15.5 97 12.82 15 9 13 1020.1 0.2 28.5 32.9 57.2 150.8 155.7 538.9
05/09 04:40 15.7 97 12.98 15.2 11 13 1019.9 0.2 28.9 33.1 57.8 152.3 157.7 545.7
05/09 04:30 15.8 97 13.06 15.3 11 15 1019.9 0.2 29.0 33.2 58.1 153.1 158.7 549.2
05/09 04:20 16 97 13.22 15.5 9 13 1020 0.2 29.4 33.4 58.6 154.6 160.6 556.1
05/09 04:10 16.2 98 13.51 15.9 11 13 1020 0.2 30.0 33.9 59.8 157.8 164.6 569.9
05/09 04:00 15.8 97 13.06 15.3 11 13 1020.1 0.2 29.0 33.2 58.1 153.1 158.7 549.3
05/09 03:50 16.1 97 13.3 15.6 9 11 1020.2 0.2 29.5 33.5 58.9 155.4 161.7 559.7
05/09 03:40 16.3 97 13.46 15.8 9 11 1020.2 0.2 29.8 33.7 59.5 157.0 163.6 566.6
05/09 03:30 16.3 96 13.32 15.7 7 9 1020.2 0.2 29.5 33.5 58.9 155.3 161.5 559.3
05/09 03:20 16.6 95 13.42 15.8 7 9 1020.3 0.2 29.7 33.6 59.1 155.9 162.4 562.3
05/09 03:10 17.8 97 14.72 17.3 7 9 1020.2 0.2 32.4 35.5 64.2 169.3 179.4 621.6
05/09 03:00 17.7 98 14.78 17.4 7 9 1020.2 0.2 32.6 35.6 64.5 170.3 180.5 625.6
05/09 02:50 17.2 97 14.2 16.7 7 9 1020.3 0.2 31.4 34.8 62.2 164.2 172.8 598.8
05/09 02:40 16.9 97 13.95 16.4 7 9 1020.4 0.2 30.9 34.4 61.3 161.8 169.7 588.0
05/09 02:30 16.5 97 13.62 16 7 9 1020.5 0.2 30.2 34.0 60.1 158.6 165.6 573.6
05/09 02:20 16.4 97 13.54 15.9 7 11 1020.6 0.2 30.0 33.9 59.8 157.8 164.7 570.2
05/09 02:10 16.5 97 13.62 16 9 15 1020.7 0.2 30.2 34.0 60.1 158.6 165.7 573.7
05/09 02:00 16.4 97 13.54 15.9 11 15 1020.8 0.2 30.0 33.9 59.8 157.8 164.7 570.3
05/09 01:50 16.6 97 13.7 16.1 9 13 1020.8 0.2 30.3 34.1 60.4 159.4 166.7 577.2
05/09 01:40 17 97 14.03 16.5 9 11 1020.8 0.2 31.0 34.5 61.6 162.6 170.8 591.6
05/09 01:30 17.3 97 14.29 16.8 7 7 1020.7 0.2 31.6 34.9 62.6 165.2 174.0 603.0
05/09 01:20 17.1 97 14.12 16.6 9 11 1020.7 0.2 31.2 34.7 62.0 163.5 171.9 595.5
05/09 01:10 17 96 13.89 16.4 9 11 1020.8 0.2 30.7 34.3 61.0 160.9 168.7 584.2
05/09 01:00 17.2 96 14.06 16.6 9 11 1020.9 0.2 31.1 34.5 61.6 162.6 170.8 591.7
05/09 00:50 17.3 96 14.14 16.7 9 11 1020.9 0.2 31.2 34.6 61.9 163.3 171.8 595.1
05/09 00:40 17.5 96 14.31 16.9 6 7 1020.9 0.2 31.6 34.9 62.5 165.0 173.9 602.5
05/09 00:30 17.6 96 14.4 17 7 11 1021 0.2 31.8 35.0 62.9 165.9 175.0 606.5
05/09 00:20 17.6 95 14.25 16.8 7 9 1021 0.2 31.4 34.7 62.2 164.1 172.8 598.6
05/09 00:10 17.7 96 14.48 17.1 11 13 1021 0.2 31.9 35.1 63.2 166.7 176.0 610.0
05/09 00:00 17.6 95 14.25 16.8 9 13 1021 0.2 31.4 34.7 62.2 164.1 172.8 598.6

Last Refresh: 05-Sep-2026 16:15:25

Bureau of Meteorology